Aérodrome :
LOGIN :

S'inscrire | Disclaimer

   EN    FR    IT 

 










Légende :    VFR   VFR Marginal   IFR   IFR Intensif   IFR Très Intensif
Visi : 
Plafond : 
>= 8 km
>= 3000ft
5 à 8 km
1000 à 3000 ft
1500m à 5 km
500 à 1000 ft
800 à 1500m
200 à 500 ft
< 800m
< 200 ft
Symboles :   Orages  Brouillard  Fortes neiges  Fortes précipitations  Vent > 20 kt
SIGMETs :   Divers  Orages  Givrage  Turbulence  Onde Orograph.  Cendres Volcan.






- Altitude de l'aérodrome : 93 ft
- Code IATA : XRY


LEJR - Jerez

DERNIER METAR :
  • 290900Z 13003KT 080V170 9999 FEW035 15/10 Q1019

METARs EXPIRÉS :
  • 290830Z 10003KT 060V160 9999 FEW045 14/10 Q1019
  • 290800Z VRB02KT 9999 FEW045 12/09 Q1019
  • 290730Z 00000KT 9999 FEW045 11/09 Q1019
  • 290700Z VRB01KT 9999 FEW045 09/08 Q1019
  • 290630Z 00000KT 9999 FEW045 08/07 Q1018

TAF TAF LEJR
Valide du 29 à 06h jusqu'au 30 à 06h UTC


290500Z 2906/3006 14005KT 9999 SCT040 TX20/2915Z TN08/2906Z
BECMG 2912/2914 23010KT
BECMG 2918/2920 VRB03KT
PROB40
TEMPO 3000/3006 4000 BR



MET'MAP, la Météo Aéronautique d'un coup d'oeil ! - Copyright ORBIFLY Décembre 2007 - Disclaimer

ORBIFLY MET'MAP TEAM :

Programmation & Développement : Alexandra Zaïnal
Sur une idée originale de : Baudouin d'Aumeries
Assistance à la programmation : Marc-Olivier Méhu
Soutien technique & logistique : Manuel Goepfert

Contact : metmap@orbifly.com




SOURCES & CREDITS :

   NOAA